sensor_id;sensor_type;location;lat;lon;timestamp;P1;durP1;ratioP1;P2;durP2;ratioP2
11596;SDS011;5854;48.072;16.286;2024-02-23T00:01:08;1.90;;;1.80;;
11596;SDS011;5854;48.072;16.286;2024-02-23T00:03:37;8.65;;;1.75;;
11596;SDS011;5854;48.072;16.286;2024-02-23T00:06:04;1.60;;;1.50;;
11596;SDS011;5854;48.072;16.286;2024-02-23T00:08:31;1.98;;;1.88;;
11596;SDS011;5854;48.072;16.286;2024-02-23T00:10:59;2.00;;;1.90;;
11596;SDS011;5854;48.072;16.286;2024-02-23T00:13:27;1.70;;;1.60;;
11596;SDS011;5854;48.072;16.286;2024-02-23T00:15:55;2.03;;;1.70;;
11596;SDS011;5854;48.072;16.286;2024-02-23T00:18:22;1.73;;;1.63;;
11596;SDS011;5854;48.072;16.286;2024-02-23T00:20:49;1.73;;;1.63;;
11596;SDS011;5854;48.072;16.286;2024-02-23T00:23:16;2.97;;;1.92;;
11596;SDS011;5854;48.072;16.286;2024-02-23T00:25:44;4.13;;;1.83;;
11596;SDS011;5854;48.072;16.286;2024-02-23T00:28:11;1.90;;;1.70;;
11596;SDS011;5854;48.072;16.286;2024-02-23T00:30:40;3.50;;;1.40;;
11596;SDS011;5854;48.072;16.286;2024-02-23T00:33:07;2.40;;;2.17;;
11596;SDS011;5854;48.072;16.286;2024-02-23T00:35:35;2.20;;;1.45;;
11596;SDS011;5854;48.072;16.286;2024-02-23T00:38:02;1.92;;;1.55;;
11596;SDS011;5854;48.072;16.286;2024-02-23T00:40:30;1.80;;;1.70;;
11596;SDS011;5854;48.072;16.286;2024-02-23T00:42:57;1.58;;;1.48;;
11596;SDS011;5854;48.072;16.286;2024-02-23T00:45:26;1.85;;;1.67;;
11596;SDS011;5854;48.072;16.286;2024-02-23T00:47:54;1.35;;;1.25;;
11596;SDS011;5854;48.072;16.286;2024-02-23T00:50:23;1.63;;;1.50;;
11596;SDS011;5854;48.072;16.286;2024-02-23T00:52:51;1.77;;;1.40;;
11596;SDS011;5854;48.072;16.286;2024-02-23T00:55:19;2.30;;;1.73;;
11596;SDS011;5854;48.072;16.286;2024-02-23T00:57:46;5.30;;;1.75;;
11596;SDS011;5854;48.072;16.286;2024-02-23T01:00:14;1.42;;;1.30;;
11596;SDS011;5854;48.072;16.286;2024-02-23T01:02:42;1.90;;;1.50;;
11596;SDS011;5854;48.072;16.286;2024-02-23T01:05:10;1.88;;;1.55;;
11596;SDS011;5854;48.072;16.286;2024-02-23T01:07:38;1.42;;;1.33;;
11596;SDS011;5854;48.072;16.286;2024-02-23T01:10:05;2.15;;;1.52;;
11596;SDS011;5854;48.072;16.286;2024-02-23T01:12:34;1.88;;;1.30;;
11596;SDS011;5854;48.072;16.286;2024-02-23T01:15:02;1.58;;;1.45;;
11596;SDS011;5854;48.072;16.286;2024-02-23T01:17:30;1.95;;;1.30;;
11596;SDS011;5854;48.072;16.286;2024-02-23T01:19:58;1.85;;;1.48;;
11596;SDS011;5854;48.072;16.286;2024-02-23T01:22:26;2.63;;;1.50;;
11596;SDS011;5854;48.072;16.286;2024-02-23T01:24:53;2.75;;;1.48;;
11596;SDS011;5854;48.072;16.286;2024-02-23T01:27:21;1.63;;;1.52;;
11596;SDS011;5854;48.072;16.286;2024-02-23T01:29:48;2.65;;;1.67;;
11596;SDS011;5854;48.072;16.286;2024-02-23T01:32:15;2.78;;;1.65;;
11596;SDS011;5854;48.072;16.286;2024-02-23T01:34:42;1.30;;;1.13;;
11596;SDS011;5854;48.072;16.286;2024-02-23T01:37:10;3.28;;;1.83;;
11596;SDS011;5854;48.072;16.286;2024-02-23T01:39:39;2.13;;;1.42;;
11596;SDS011;5854;48.072;16.286;2024-02-23T01:42:06;2.10;;;1.52;;
11596;SDS011;5854;48.072;16.286;2024-02-23T01:44:34;3.33;;;1.63;;
11596;SDS011;5854;48.072;16.286;2024-02-23T01:47:02;2.63;;;1.90;;
11596;SDS011;5854;48.072;16.286;2024-02-23T01:49:29;1.67;;;1.58;;
11596;SDS011;5854;48.072;16.286;2024-02-23T01:51:58;1.25;;;1.15;;
11596;SDS011;5854;48.072;16.286;2024-02-23T01:54:27;1.40;;;1.30;;
11596;SDS011;5854;48.072;16.286;2024-02-23T01:56:57;1.80;;;1.63;;
11596;SDS011;5854;48.072;16.286;2024-02-23T01:59:26;1.50;;;1.40;;
11596;SDS011;5854;48.072;16.286;2024-02-23T02:01:54;1.58;;;1.30;;
11596;SDS011;5854;48.072;16.286;2024-02-23T02:04:21;1.70;;;1.40;;
11596;SDS011;5854;48.072;16.286;2024-02-23T02:06:49;1.70;;;1.60;;
11596;SDS011;5854;48.072;16.286;2024-02-23T02:09:16;3.00;;;1.33;;
11596;SDS011;5854;48.072;16.286;2024-02-23T02:11:46;1.52;;;1.42;;
11596;SDS011;5854;48.072;16.286;2024-02-23T02:14:16;1.40;;;1.30;;
11596;SDS011;5854;48.072;16.286;2024-02-23T02:16:43;1.25;;;1.15;;
11596;SDS011;5854;48.072;16.286;2024-02-23T02:19:11;1.90;;;1.55;;
11596;SDS011;5854;48.072;16.286;2024-02-23T02:21:39;1.83;;;1.40;;
11596;SDS011;5854;48.072;16.286;2024-02-23T02:24:07;1.30;;;1.20;;
11596;SDS011;5854;48.072;16.286;2024-02-23T02:26:35;1.02;;;1.00;;
11596;SDS011;5854;48.072;16.286;2024-02-23T02:29:03;1.20;;;1.10;;
11596;SDS011;5854;48.072;16.286;2024-02-23T02:31:33;1.30;;;1.20;;
11596;SDS011;5854;48.072;16.286;2024-02-23T02:34:02;1.60;;;1.50;;
11596;SDS011;5854;48.072;16.286;2024-02-23T02:36:30;1.23;;;1.13;;
11596;SDS011;5854;48.072;16.286;2024-02-23T02:38:56;1.83;;;1.20;;
11596;SDS011;5854;48.072;16.286;2024-02-23T02:41:23;1.40;;;1.30;;
11596;SDS011;5854;48.072;16.286;2024-02-23T02:43:55;1.15;;;1.10;;
11596;SDS011;5854;48.072;16.286;2024-02-23T02:46:22;1.83;;;1.25;;
11596;SDS011;5854;48.072;16.286;2024-02-23T02:48:51;1.70;;;1.33;;
11596;SDS011;5854;48.072;16.286;2024-02-23T02:51:18;6.50;;;1.63;;
11596;SDS011;5854;48.072;16.286;2024-02-23T02:53:46;1.67;;;1.58;;
11596;SDS011;5854;48.072;16.286;2024-02-23T02:56:13;1.60;;;1.50;;
11596;SDS011;5854;48.072;16.286;2024-02-23T02:58:40;1.98;;;1.77;;
11596;SDS011;5854;48.072;16.286;2024-02-23T03:01:08;2.28;;;1.58;;
11596;SDS011;5854;48.072;16.286;2024-02-23T03:03:35;1.98;;;1.45;;
11596;SDS011;5854;48.072;16.286;2024-02-23T03:06:04;1.70;;;1.50;;
11596;SDS011;5854;48.072;16.286;2024-02-23T03:08:32;1.25;;;1.10;;
11596;SDS011;5854;48.072;16.286;2024-02-23T03:10:59;1.85;;;1.30;;
11596;SDS011;5854;48.072;16.286;2024-02-23T03:13:27;1.27;;;1.20;;
11596;SDS011;5854;48.072;16.286;2024-02-23T03:15:56;1.40;;;1.30;;
11596;SDS011;5854;48.072;16.286;2024-02-23T03:18:23;1.48;;;1.38;;
11596;SDS011;5854;48.072;16.286;2024-02-23T03:20:52;1.55;;;1.45;;
11596;SDS011;5854;48.072;16.286;2024-02-23T03:23:21;1.60;;;1.50;;
11596;SDS011;5854;48.072;16.286;2024-02-23T03:25:49;1.15;;;1.05;;
11596;SDS011;5854;48.072;16.286;2024-02-23T03:28:16;1.48;;;0.90;;
11596;SDS011;5854;48.072;16.286;2024-02-23T03:30:43;8.13;;;1.10;;
11596;SDS011;5854;48.072;16.286;2024-02-23T03:33:10;1.63;;;1.52;;
11596;SDS011;5854;48.072;16.286;2024-02-23T03:35:38;2.92;;;2.55;;
11596;SDS011;5854;48.072;16.286;2024-02-23T03:38:05;1.58;;;1.48;;
11596;SDS011;5854;48.072;16.286;2024-02-23T03:40:34;3.78;;;1.85;;
11596;SDS011;5854;48.072;16.286;2024-02-23T03:43:02;5.43;;;1.50;;
11596;SDS011;5854;48.072;16.286;2024-02-23T03:45:30;1.95;;;1.85;;
11596;SDS011;5854;48.072;16.286;2024-02-23T03:47:58;2.83;;;1.73;;
11596;SDS011;5854;48.072;16.286;2024-02-23T03:50:25;1.52;;;1.42;;
11596;SDS011;5854;48.072;16.286;2024-02-23T03:52:53;0.90;;;0.90;;
11596;SDS011;5854;48.072;16.286;2024-02-23T03:55:20;0.90;;;0.90;;
11596;SDS011;5854;48.072;16.286;2024-02-23T03:57:49;3.25;;;2.15;;
11596;SDS011;5854;48.072;16.286;2024-02-23T04:00:16;2.00;;;1.50;;
11596;SDS011;5854;48.072;16.286;2024-02-23T04:02:44;1.20;;;1.10;;
11596;SDS011;5854;48.072;16.286;2024-02-23T04:05:11;1.15;;;1.13;;
11596;SDS011;5854;48.072;16.286;2024-02-23T04:07:39;0.68;;;0.68;;
11596;SDS011;5854;48.072;16.286;2024-02-23T04:10:07;1.00;;;1.00;;
11596;SDS011;5854;48.072;16.286;2024-02-23T04:12:35;2.05;;;1.95;;
11596;SDS011;5854;48.072;16.286;2024-02-23T04:15:04;1.73;;;1.63;;
11596;SDS011;5854;48.072;16.286;2024-02-23T04:17:32;1.38;;;1.30;;
11596;SDS011;5854;48.072;16.286;2024-02-23T04:20:00;1.17;;;1.10;;
11596;SDS011;5854;48.072;16.286;2024-02-23T04:22:34;3.08;;;2.80;;
11596;SDS011;5854;48.072;16.286;2024-02-23T04:25:02;2.83;;;1.83;;
11596;SDS011;5854;48.072;16.286;2024-02-23T04:27:30;2.15;;;1.95;;
11596;SDS011;5854;48.072;16.286;2024-02-23T04:29:57;2.45;;;2.25;;
11596;SDS011;5854;48.072;16.286;2024-02-23T04:32:26;2.42;;;2.00;;
11596;SDS011;5854;48.072;16.286;2024-02-23T04:34:53;1.80;;;1.70;;
11596;SDS011;5854;48.072;16.286;2024-02-23T04:37:21;1.88;;;1.77;;
11596;SDS011;5854;48.072;16.286;2024-02-23T04:39:49;1.75;;;1.63;;
11596;SDS011;5854;48.072;16.286;2024-02-23T04:42:16;1.55;;;1.45;;
11596;SDS011;5854;48.072;16.286;2024-02-23T04:44:43;2.10;;;1.50;;
11596;SDS011;5854;48.072;16.286;2024-02-23T04:47:11;1.55;;;1.45;;
11596;SDS011;5854;48.072;16.286;2024-02-23T04:49:40;1.70;;;1.40;;
11596;SDS011;5854;48.072;16.286;2024-02-23T04:52:07;1.98;;;1.77;;
11596;SDS011;5854;48.072;16.286;2024-02-23T04:54:35;1.00;;;1.00;;
11596;SDS011;5854;48.072;16.286;2024-02-23T04:57:02;1.00;;;1.00;;
11596;SDS011;5854;48.072;16.286;2024-02-23T04:59:29;0.90;;;0.90;;
11596;SDS011;5854;48.072;16.286;2024-02-23T05:01:57;1.15;;;1.15;;
11596;SDS011;5854;48.072;16.286;2024-02-23T05:04:24;4.35;;;0.80;;
11596;SDS011;5854;48.072;16.286;2024-02-23T05:06:54;1.10;;;1.10;;
11596;SDS011;5854;48.072;16.286;2024-02-23T05:09:22;1.85;;;0.90;;
11596;SDS011;5854;48.072;16.286;2024-02-23T05:11:49;0.80;;;0.80;;
11596;SDS011;5854;48.072;16.286;2024-02-23T05:14:20;0.70;;;0.70;;
11596;SDS011;5854;48.072;16.286;2024-02-23T05:16:47;0.80;;;0.80;;
11596;SDS011;5854;48.072;16.286;2024-02-23T05:19:15;1.38;;;1.27;;
11596;SDS011;5854;48.072;16.286;2024-02-23T05:21:42;0.60;;;0.60;;
11596;SDS011;5854;48.072;16.286;2024-02-23T05:24:11;0.60;;;0.60;;
11596;SDS011;5854;48.072;16.286;2024-02-23T05:26:38;0.95;;;0.90;;
11596;SDS011;5854;48.072;16.286;2024-02-23T05:29:06;0.90;;;0.90;;
11596;SDS011;5854;48.072;16.286;2024-02-23T05:31:43;0.68;;;0.68;;
11596;SDS011;5854;48.072;16.286;2024-02-23T05:36:42;1.10;;;1.10;;
11596;SDS011;5854;48.072;16.286;2024-02-23T05:39:12;1.10;;;1.10;;
11596;SDS011;5854;48.072;16.286;2024-02-23T05:41:40;1.48;;;1.38;;
11596;SDS011;5854;48.072;16.286;2024-02-23T05:44:08;3.33;;;1.08;;
11596;SDS011;5854;48.072;16.286;2024-02-23T05:46:36;1.73;;;1.00;;
11596;SDS011;5854;48.072;16.286;2024-02-23T05:49:03;0.82;;;0.82;;
11596;SDS011;5854;48.072;16.286;2024-02-23T05:51:31;7.13;;;0.88;;
11596;SDS011;5854;48.072;16.286;2024-02-23T05:53:58;1.08;;;0.70;;
11596;SDS011;5854;48.072;16.286;2024-02-23T05:56:27;0.60;;;0.60;;
11596;SDS011;5854;48.072;16.286;2024-02-23T05:58:55;0.60;;;0.60;;
11596;SDS011;5854;48.072;16.286;2024-02-23T06:01:22;0.85;;;0.77;;
11596;SDS011;5854;48.072;16.286;2024-02-23T06:03:50;0.77;;;0.77;;
11596;SDS011;5854;48.072;16.286;2024-02-23T06:06:18;0.80;;;0.80;;
11596;SDS011;5854;48.072;16.286;2024-02-23T06:08:45;0.70;;;0.70;;
11596;SDS011;5854;48.072;16.286;2024-02-23T06:11:14;0.65;;;0.65;;
11596;SDS011;5854;48.072;16.286;2024-02-23T06:13:43;0.57;;;0.57;;
11596;SDS011;5854;48.072;16.286;2024-02-23T06:16:11;0.50;;;0.50;;
11596;SDS011;5854;48.072;16.286;2024-02-23T06:18:41;1.13;;;1.02;;
11596;SDS011;5854;48.072;16.286;2024-02-23T06:21:11;0.85;;;0.80;;
11596;SDS011;5854;48.072;16.286;2024-02-23T06:23:40;0.60;;;0.60;;
11596;SDS011;5854;48.072;16.286;2024-02-23T06:26:07;0.73;;;0.73;;
11596;SDS011;5854;48.072;16.286;2024-02-23T06:28:35;0.70;;;0.70;;
11596;SDS011;5854;48.072;16.286;2024-02-23T06:31:05;0.60;;;0.60;;
11596;SDS011;5854;48.072;16.286;2024-02-23T06:33:32;0.65;;;0.65;;
11596;SDS011;5854;48.072;16.286;2024-02-23T06:36:00;2.22;;;0.80;;
11596;SDS011;5854;48.072;16.286;2024-02-23T06:38:29;0.60;;;0.60;;
11596;SDS011;5854;48.072;16.286;2024-02-23T06:40:56;2.13;;;1.92;;
11596;SDS011;5854;48.072;16.286;2024-02-23T06:43:23;1.95;;;1.50;;
11596;SDS011;5854;48.072;16.286;2024-02-23T06:45:51;3.30;;;2.47;;
11596;SDS011;5854;48.072;16.286;2024-02-23T06:48:20;2.33;;;1.52;;
11596;SDS011;5854;48.072;16.286;2024-02-23T06:50:47;1.48;;;0.90;;
11596;SDS011;5854;48.072;16.286;2024-02-23T06:53:15;0.60;;;0.60;;
11596;SDS011;5854;48.072;16.286;2024-02-23T06:55:42;0.85;;;0.80;;
11596;SDS011;5854;48.072;16.286;2024-02-23T06:58:09;1.00;;;0.82;;
11596;SDS011;5854;48.072;16.286;2024-02-23T07:00:38;0.50;;;0.50;;
11596;SDS011;5854;48.072;16.286;2024-02-23T07:03:05;0.70;;;0.70;;
11596;SDS011;5854;48.072;16.286;2024-02-23T07:05:34;1.90;;;0.60;;
11596;SDS011;5854;48.072;16.286;2024-02-23T07:08:02;0.60;;;0.60;;
11596;SDS011;5854;48.072;16.286;2024-02-23T07:10:30;0.60;;;0.60;;
11596;SDS011;5854;48.072;16.286;2024-02-23T07:12:58;0.40;;;0.40;;
11596;SDS011;5854;48.072;16.286;2024-02-23T07:15:25;0.50;;;0.50;;
11596;SDS011;5854;48.072;16.286;2024-02-23T07:17:52;0.63;;;0.52;;
11596;SDS011;5854;48.072;16.286;2024-02-23T07:20:20;0.45;;;0.45;;
11596;SDS011;5854;48.072;16.286;2024-02-23T07:22:49;0.50;;;0.50;;
11596;SDS011;5854;48.072;16.286;2024-02-23T07:25:17;0.50;;;0.50;;
11596;SDS011;5854;48.072;16.286;2024-02-23T07:27:45;2.60;;;1.08;;
11596;SDS011;5854;48.072;16.286;2024-02-23T07:30:14;2.42;;;2.22;;
11596;SDS011;5854;48.072;16.286;2024-02-23T07:32:42;2.47;;;2.38;;
11596;SDS011;5854;48.072;16.286;2024-02-23T07:35:11;1.58;;;1.48;;
11596;SDS011;5854;48.072;16.286;2024-02-23T07:37:39;2.10;;;2.00;;
11596;SDS011;5854;48.072;16.286;2024-02-23T07:40:08;0.70;;;0.70;;
11596;SDS011;5854;48.072;16.286;2024-02-23T07:42:37;1.02;;;0.70;;
11596;SDS011;5854;48.072;16.286;2024-02-23T07:45:05;0.70;;;0.70;;
11596;SDS011;5854;48.072;16.286;2024-02-23T07:47:34;5.18;;;1.90;;
11596;SDS011;5854;48.072;16.286;2024-02-23T07:50:02;6.88;;;2.20;;
11596;SDS011;5854;48.072;16.286;2024-02-23T07:52:30;2.25;;;1.50;;
11596;SDS011;5854;48.072;16.286;2024-02-23T07:54:57;1.25;;;1.00;;
11596;SDS011;5854;48.072;16.286;2024-02-23T07:57:29;0.80;;;0.80;;
11596;SDS011;5854;48.072;16.286;2024-02-23T07:59:57;1.10;;;0.57;;
11596;SDS011;5854;48.072;16.286;2024-02-23T08:02:24;1.02;;;0.68;;
11596;SDS011;5854;48.072;16.286;2024-02-23T08:04:51;0.50;;;0.50;;
11596;SDS011;5854;48.072;16.286;2024-02-23T08:07:19;0.40;;;0.40;;
11596;SDS011;5854;48.072;16.286;2024-02-23T08:09:48;0.50;;;0.50;;
11596;SDS011;5854;48.072;16.286;2024-02-23T08:12:15;0.60;;;0.60;;
11596;SDS011;5854;48.072;16.286;2024-02-23T08:14:44;0.90;;;0.90;;
11596;SDS011;5854;48.072;16.286;2024-02-23T08:17:14;0.80;;;0.80;;
11596;SDS011;5854;48.072;16.286;2024-02-23T08:19:41;0.50;;;0.50;;
11596;SDS011;5854;48.072;16.286;2024-02-23T08:22:08;0.70;;;0.70;;
11596;SDS011;5854;48.072;16.286;2024-02-23T08:24:36;0.70;;;0.70;;
11596;SDS011;5854;48.072;16.286;2024-02-23T08:27:03;0.50;;;0.50;;
11596;SDS011;5854;48.072;16.286;2024-02-23T08:29:31;0.50;;;0.50;;
11596;SDS011;5854;48.072;16.286;2024-02-23T08:32:00;1.17;;;0.57;;
11596;SDS011;5854;48.072;16.286;2024-02-23T08:34:27;1.90;;;1.23;;
11596;SDS011;5854;48.072;16.286;2024-02-23T08:36:54;0.90;;;0.90;;
11596;SDS011;5854;48.072;16.286;2024-02-23T08:39:22;0.73;;;0.73;;
11596;SDS011;5854;48.072;16.286;2024-02-23T08:41:49;0.60;;;0.60;;
11596;SDS011;5854;48.072;16.286;2024-02-23T08:44:17;0.80;;;0.80;;
11596;SDS011;5854;48.072;16.286;2024-02-23T08:46:44;0.70;;;0.70;;
11596;SDS011;5854;48.072;16.286;2024-02-23T08:49:14;0.60;;;0.60;;
11596;SDS011;5854;48.072;16.286;2024-02-23T08:51:42;2.55;;;0.50;;
11596;SDS011;5854;48.072;16.286;2024-02-23T08:54:09;0.50;;;0.50;;
11596;SDS011;5854;48.072;16.286;2024-02-23T08:56:37;0.50;;;0.50;;
11596;SDS011;5854;48.072;16.286;2024-02-23T08:59:07;0.60;;;0.60;;
11596;SDS011;5854;48.072;16.286;2024-02-23T09:01:35;1.50;;;0.90;;
11596;SDS011;5854;48.072;16.286;2024-02-23T09:04:02;0.50;;;0.50;;
11596;SDS011;5854;48.072;16.286;2024-02-23T09:06:31;0.60;;;0.60;;
11596;SDS011;5854;48.072;16.286;2024-02-23T09:09:03;1.77;;;0.95;;
11596;SDS011;5854;48.072;16.286;2024-02-23T09:11:31;1.40;;;0.70;;
11596;SDS011;5854;48.072;16.286;2024-02-23T09:13:58;0.50;;;0.50;;
11596;SDS011;5854;48.072;16.286;2024-02-23T09:16:25;0.70;;;0.43;;
11596;SDS011;5854;48.072;16.286;2024-02-23T09:18:53;0.40;;;0.40;;
11596;SDS011;5854;48.072;16.286;2024-02-23T09:21:20;0.40;;;0.40;;
11596;SDS011;5854;48.072;16.286;2024-02-23T09:23:49;0.50;;;0.50;;
11596;SDS011;5854;48.072;16.286;2024-02-23T09:26:16;0.45;;;0.45;;
11596;SDS011;5854;48.072;16.286;2024-02-23T09:28:43;0.47;;;0.40;;
11596;SDS011;5854;48.072;16.286;2024-02-23T09:31:11;0.43;;;0.43;;
11596;SDS011;5854;48.072;16.286;2024-02-23T09:33:38;0.57;;;0.57;;
11596;SDS011;5854;48.072;16.286;2024-02-23T09:36:06;4.20;;;0.77;;
11596;SDS011;5854;48.072;16.286;2024-02-23T09:38:35;2.60;;;0.88;;
11596;SDS011;5854;48.072;16.286;2024-02-23T09:41:04;1.20;;;1.10;;
11596;SDS011;5854;48.072;16.286;2024-02-23T09:43:31;1.73;;;0.82;;
11596;SDS011;5854;48.072;16.286;2024-02-23T09:46:00;1.17;;;1.00;;
11596;SDS011;5854;48.072;16.286;2024-02-23T09:48:27;1.90;;;0.90;;
11596;SDS011;5854;48.072;16.286;2024-02-23T09:50:58;1.23;;;0.93;;
11596;SDS011;5854;48.072;16.286;2024-02-23T09:53:29;1.45;;;1.02;;
11596;SDS011;5854;48.072;16.286;2024-02-23T09:55:57;1.30;;;1.02;;
11596;SDS011;5854;48.072;16.286;2024-02-23T09:58:30;1.20;;;1.00;;
11596;SDS011;5854;48.072;16.286;2024-02-23T10:00:59;2.15;;;1.20;;
11596;SDS011;5854;48.072;16.286;2024-02-23T10:03:29;1.08;;;0.80;;
11596;SDS011;5854;48.072;16.286;2024-02-23T10:05:57;1.70;;;1.17;;
11596;SDS011;5854;48.072;16.286;2024-02-23T10:08:26;0.63;;;0.63;;
11596;SDS011;5854;48.072;16.286;2024-02-23T10:10:54;5.57;;;1.00;;
11596;SDS011;5854;48.072;16.286;2024-02-23T10:13:22;0.98;;;0.98;;
11596;SDS011;5854;48.072;16.286;2024-02-23T10:15:51;1.58;;;1.25;;
11596;SDS011;5854;48.072;16.286;2024-02-23T10:18:20;1.10;;;1.00;;
11596;SDS011;5854;48.072;16.286;2024-02-23T10:20:47;4.65;;;0.90;;
11596;SDS011;5854;48.072;16.286;2024-02-23T10:23:20;1.92;;;1.40;;
11596;SDS011;5854;48.072;16.286;2024-02-23T10:28:31;11.50;;;1.50;;
11596;SDS011;5854;48.072;16.286;2024-02-23T10:36:07;1.70;;;0.70;;
11596;SDS011;5854;48.072;16.286;2024-02-23T10:38:46;1.85;;;1.10;;
11596;SDS011;5854;48.072;16.286;2024-02-23T10:43:53;1.88;;;1.20;;
11596;SDS011;5854;48.072;16.286;2024-02-23T10:46:24;1.02;;;1.00;;
11596;SDS011;5854;48.072;16.286;2024-02-23T10:48:54;0.80;;;0.70;;
11596;SDS011;5854;48.072;16.286;2024-02-23T10:51:23;0.90;;;0.90;;
11596;SDS011;5854;48.072;16.286;2024-02-23T10:53:51;1.25;;;1.08;;
11596;SDS011;5854;48.072;16.286;2024-02-23T10:56:19;1.00;;;0.90;;
11596;SDS011;5854;48.072;16.286;2024-02-23T10:58:47;1.73;;;0.90;;
11596;SDS011;5854;48.072;16.286;2024-02-23T11:01:14;0.60;;;0.60;;
11596;SDS011;5854;48.072;16.286;2024-02-23T11:03:43;0.50;;;0.50;;
11596;SDS011;5854;48.072;16.286;2024-02-23T11:06:16;0.50;;;0.50;;
11596;SDS011;5854;48.072;16.286;2024-02-23T11:08:46;0.50;;;0.50;;
11596;SDS011;5854;48.072;16.286;2024-02-23T11:11:15;0.60;;;0.60;;
11596;SDS011;5854;48.072;16.286;2024-02-23T11:13:44;0.50;;;0.50;;
11596;SDS011;5854;48.072;16.286;2024-02-23T11:16:20;0.63;;;0.60;;
11596;SDS011;5854;48.072;16.286;2024-02-23T11:18:49;0.73;;;0.70;;
11596;SDS011;5854;48.072;16.286;2024-02-23T11:21:34;1.10;;;0.60;;
11596;SDS011;5854;48.072;16.286;2024-02-23T11:24:03;1.38;;;0.60;;
11596;SDS011;5854;48.072;16.286;2024-02-23T11:26:32;0.60;;;0.60;;
11596;SDS011;5854;48.072;16.286;2024-02-23T11:29:09;0.60;;;0.60;;
11596;SDS011;5854;48.072;16.286;2024-02-23T11:31:36;3.40;;;0.75;;
11596;SDS011;5854;48.072;16.286;2024-02-23T11:34:13;1.33;;;0.70;;
11596;SDS011;5854;48.072;16.286;2024-02-23T11:36:41;0.50;;;0.50;;
11596;SDS011;5854;48.072;16.286;2024-02-23T11:39:08;0.60;;;0.60;;
11596;SDS011;5854;48.072;16.286;2024-02-23T11:41:38;1.13;;;1.00;;
11596;SDS011;5854;48.072;16.286;2024-02-23T11:44:06;0.57;;;0.57;;
11596;SDS011;5854;48.072;16.286;2024-02-23T11:46:33;0.55;;;0.55;;
11596;SDS011;5854;48.072;16.286;2024-02-23T11:49:01;0.73;;;0.70;;
11596;SDS011;5854;48.072;16.286;2024-02-23T11:51:28;0.65;;;0.65;;
11596;SDS011;5854;48.072;16.286;2024-02-23T11:53:57;0.75;;;0.73;;
11596;SDS011;5854;48.072;16.286;2024-02-23T11:56:25;0.50;;;0.50;;
11596;SDS011;5854;48.072;16.286;2024-02-23T11:58:53;0.80;;;0.80;;
11596;SDS011;5854;48.072;16.286;2024-02-23T12:01:20;0.70;;;0.70;;
11596;SDS011;5854;48.072;16.286;2024-02-23T12:03:48;0.98;;;0.80;;
11596;SDS011;5854;48.072;16.286;2024-02-23T12:06:15;0.70;;;0.70;;
11596;SDS011;5854;48.072;16.286;2024-02-23T12:08:44;0.93;;;0.90;;
11596;SDS011;5854;48.072;16.286;2024-02-23T12:11:13;0.88;;;0.88;;
11596;SDS011;5854;48.072;16.286;2024-02-23T12:13:41;0.70;;;0.70;;
11596;SDS011;5854;48.072;16.286;2024-02-23T12:16:08;0.85;;;0.80;;
11596;SDS011;5854;48.072;16.286;2024-02-23T12:18:35;0.70;;;0.70;;
11596;SDS011;5854;48.072;16.286;2024-02-23T12:21:04;0.80;;;0.80;;
11596;SDS011;5854;48.072;16.286;2024-02-23T12:23:39;1.10;;;0.90;;
11596;SDS011;5854;48.072;16.286;2024-02-23T12:26:07;0.98;;;0.80;;
11596;SDS011;5854;48.072;16.286;2024-02-23T12:28:36;1.10;;;0.90;;
11596;SDS011;5854;48.072;16.286;2024-02-23T12:31:04;1.20;;;1.10;;
11596;SDS011;5854;48.072;16.286;2024-02-23T12:33:32;1.10;;;1.00;;
11596;SDS011;5854;48.072;16.286;2024-02-23T12:36:01;1.10;;;1.00;;
11596;SDS011;5854;48.072;16.286;2024-02-23T12:38:30;1.45;;;1.10;;
11596;SDS011;5854;48.072;16.286;2024-02-23T12:40:58;1.60;;;1.00;;
11596;SDS011;5854;48.072;16.286;2024-02-23T12:43:27;4.97;;;1.25;;
11596;SDS011;5854;48.072;16.286;2024-02-23T12:45:57;2.05;;;1.15;;
11596;SDS011;5854;48.072;16.286;2024-02-23T12:48:26;0.75;;;0.75;;
11596;SDS011;5854;48.072;16.286;2024-02-23T12:50:53;2.25;;;1.55;;
11596;SDS011;5854;48.072;16.286;2024-02-23T12:53:30;1.10;;;1.00;;
11596;SDS011;5854;48.072;16.286;2024-02-23T12:56:01;1.13;;;0.90;;
11596;SDS011;5854;48.072;16.286;2024-02-23T12:58:29;1.25;;;1.00;;
11596;SDS011;5854;48.072;16.286;2024-02-23T13:00:59;1.55;;;1.45;;
11596;SDS011;5854;48.072;16.286;2024-02-23T13:03:27;1.70;;;1.20;;
11596;SDS011;5854;48.072;16.286;2024-02-23T13:05:55;3.40;;;1.00;;
11596;SDS011;5854;48.072;16.286;2024-02-23T13:08:23;1.48;;;1.38;;
11596;SDS011;5854;48.072;16.286;2024-02-23T13:10:52;0.98;;;0.98;;
11596;SDS011;5854;48.072;16.286;2024-02-23T13:13:20;1.77;;;1.25;;
11596;SDS011;5854;48.072;16.286;2024-02-23T13:15:48;1.17;;;1.08;;
11596;SDS011;5854;48.072;16.286;2024-02-23T13:18:19;1.33;;;1.23;;
11596;SDS011;5854;48.072;16.286;2024-02-23T13:20:47;0.85;;;0.85;;
11596;SDS011;5854;48.072;16.286;2024-02-23T13:23:14;1.88;;;1.38;;
11596;SDS011;5854;48.072;16.286;2024-02-23T13:25:42;1.25;;;1.15;;
11596;SDS011;5854;48.072;16.286;2024-02-23T13:28:10;1.92;;;1.10;;
11596;SDS011;5854;48.072;16.286;2024-02-23T13:30:38;5.18;;;1.40;;
11596;SDS011;5854;48.072;16.286;2024-02-23T13:33:05;1.52;;;1.42;;
11596;SDS011;5854;48.072;16.286;2024-02-23T13:35:37;1.08;;;1.00;;
11596;SDS011;5854;48.072;16.286;2024-02-23T13:38:05;1.70;;;1.60;;
11596;SDS011;5854;48.072;16.286;2024-02-23T13:40:32;3.15;;;1.42;;
11596;SDS011;5854;48.072;16.286;2024-02-23T13:42:59;3.38;;;1.60;;
11596;SDS011;5854;48.072;16.286;2024-02-23T13:45:27;1.30;;;1.20;;
11596;SDS011;5854;48.072;16.286;2024-02-23T13:47:58;1.40;;;1.30;;
11596;SDS011;5854;48.072;16.286;2024-02-23T13:50:26;1.40;;;1.30;;
11596;SDS011;5854;48.072;16.286;2024-02-23T13:52:56;2.35;;;1.65;;
11596;SDS011;5854;48.072;16.286;2024-02-23T13:55:23;1.52;;;1.27;;
11596;SDS011;5854;48.072;16.286;2024-02-23T13:57:51;1.55;;;1.45;;
11596;SDS011;5854;48.072;16.286;2024-02-23T14:00:18;1.50;;;1.25;;
11596;SDS011;5854;48.072;16.286;2024-02-23T14:02:46;1.23;;;1.13;;
11596;SDS011;5854;48.072;16.286;2024-02-23T14:05:14;2.17;;;1.20;;
11596;SDS011;5854;48.072;16.286;2024-02-23T14:07:43;1.30;;;1.20;;
11596;SDS011;5854;48.072;16.286;2024-02-23T14:10:11;1.50;;;1.33;;
11596;SDS011;5854;48.072;16.286;2024-02-23T14:12:39;1.85;;;1.73;;
11596;SDS011;5854;48.072;16.286;2024-02-23T14:15:08;2.22;;;2.03;;
11596;SDS011;5854;48.072;16.286;2024-02-23T14:17:35;1.33;;;1.23;;
11596;SDS011;5854;48.072;16.286;2024-02-23T14:20:03;1.45;;;1.35;;
11596;SDS011;5854;48.072;16.286;2024-02-23T14:22:31;1.77;;;1.33;;
11596;SDS011;5854;48.072;16.286;2024-02-23T14:24:59;1.60;;;1.35;;
11596;SDS011;5854;48.072;16.286;2024-02-23T14:27:28;1.63;;;1.52;;
11596;SDS011;5854;48.072;16.286;2024-02-23T14:29:55;1.70;;;1.40;;
11596;SDS011;5854;48.072;16.286;2024-02-23T14:32:22;2.15;;;1.30;;
11596;SDS011;5854;48.072;16.286;2024-02-23T14:34:49;1.58;;;1.35;;
11596;SDS011;5854;48.072;16.286;2024-02-23T14:37:17;5.03;;;1.55;;
11596;SDS011;5854;48.072;16.286;2024-02-23T14:39:44;1.45;;;1.25;;
11596;SDS011;5854;48.072;16.286;2024-02-23T14:42:11;1.48;;;1.30;;
11596;SDS011;5854;48.072;16.286;2024-02-23T14:44:40;1.63;;;1.45;;
11596;SDS011;5854;48.072;16.286;2024-02-23T14:47:07;1.48;;;1.38;;
11596;SDS011;5854;48.072;16.286;2024-02-23T14:49:34;2.63;;;1.35;;
11596;SDS011;5854;48.072;16.286;2024-02-23T14:52:02;1.48;;;1.38;;
11596;SDS011;5854;48.072;16.286;2024-02-23T14:54:29;1.55;;;1.42;;
11596;SDS011;5854;48.072;16.286;2024-02-23T14:56:58;4.57;;;1.90;;
11596;SDS011;5854;48.072;16.286;2024-02-23T14:59:25;2.40;;;2.10;;
11596;SDS011;5854;48.072;16.286;2024-02-23T15:01:54;3.00;;;1.45;;
11596;SDS011;5854;48.072;16.286;2024-02-23T15:04:21;3.95;;;1.52;;
11596;SDS011;5854;48.072;16.286;2024-02-23T15:06:48;2.10;;;1.52;;